sensor_id;sensor_type;location;lat;lon;timestamp;temperature;humidity
14577;DHT22;7375;46.072;14.470;2023-05-07T00:02:15;22.60;65.10
14577;DHT22;7375;46.072;14.470;2023-05-07T00:04:41;22.60;65.10
14577;DHT22;7375;46.072;14.470;2023-05-07T00:07:10;22.60;65.20
14577;DHT22;7375;46.072;14.470;2023-05-07T00:09:37;22.60;65.20
14577;DHT22;7375;46.072;14.470;2023-05-07T00:12:04;22.60;65.10
14577;DHT22;7375;46.072;14.470;2023-05-07T00:14:31;22.60;65.00
14577;DHT22;7375;46.072;14.470;2023-05-07T00:16:57;22.60;65.20
14577;DHT22;7375;46.072;14.470;2023-05-07T00:19:24;22.60;65.20
14577;DHT22;7375;46.072;14.470;2023-05-07T00:21:51;22.50;65.30
14577;DHT22;7375;46.072;14.470;2023-05-07T00:24:20;22.50;65.30
14577;DHT22;7375;46.072;14.470;2023-05-07T00:26:47;22.60;65.40
14577;DHT22;7375;46.072;14.470;2023-05-07T00:29:13;22.60;65.40
14577;DHT22;7375;46.072;14.470;2023-05-07T00:31:40;22.60;65.30
14577;DHT22;7375;46.072;14.470;2023-05-07T00:34:07;22.60;65.40
14577;DHT22;7375;46.072;14.470;2023-05-07T00:36:33;22.60;65.30
14577;DHT22;7375;46.072;14.470;2023-05-07T00:39:00;22.50;65.20
14577;DHT22;7375;46.072;14.470;2023-05-07T00:41:30;22.50;65.10
14577;DHT22;7375;46.072;14.470;2023-05-07T00:43:57;22.50;65.10
14577;DHT22;7375;46.072;14.470;2023-05-07T00:46:24;22.50;65.10
14577;DHT22;7375;46.072;14.470;2023-05-07T00:48:51;22.50;65.10
14577;DHT22;7375;46.072;14.470;2023-05-07T00:51:18;22.50;65.10
14577;DHT22;7375;46.072;14.470;2023-05-07T00:53:44;22.50;65.70
14577;DHT22;7375;46.072;14.470;2023-05-07T00:56:11;22.50;65.10
14577;DHT22;7375;46.072;14.470;2023-05-07T00:58:39;22.50;65.10
14577;DHT22;7375;46.072;14.470;2023-05-07T01:01:06;22.50;65.10
14577;DHT22;7375;46.072;14.470;2023-05-07T01:03:33;22.50;65.20
14577;DHT22;7375;46.072;14.470;2023-05-07T01:06:00;22.50;65.20
14577;DHT22;7375;46.072;14.470;2023-05-07T01:08:28;22.50;65.10
14577;DHT22;7375;46.072;14.470;2023-05-07T01:10:55;22.50;65.10
14577;DHT22;7375;46.072;14.470;2023-05-07T01:13:22;22.50;65.10
14577;DHT22;7375;46.072;14.470;2023-05-07T01:15:51;22.50;65.10
14577;DHT22;7375;46.072;14.470;2023-05-07T01:18:18;22.50;65.10
14577;DHT22;7375;46.072;14.470;2023-05-07T01:20:45;22.40;65.10
14577;DHT22;7375;46.072;14.470;2023-05-07T01:23:13;22.40;65.10
14577;DHT22;7375;46.072;14.470;2023-05-07T01:25:39;22.40;65.10
14577;DHT22;7375;46.072;14.470;2023-05-07T01:28:06;22.40;65.10
14577;DHT22;7375;46.072;14.470;2023-05-07T01:30:33;22.40;65.10
14577;DHT22;7375;46.072;14.470;2023-05-07T01:33:01;22.40;65.30
14577;DHT22;7375;46.072;14.470;2023-05-07T01:35:32;22.40;65.30
14577;DHT22;7375;46.072;14.470;2023-05-07T01:38:00;22.40;65.30
14577;DHT22;7375;46.072;14.470;2023-05-07T01:40:29;22.40;65.30
14577;DHT22;7375;46.072;14.470;2023-05-07T01:42:55;22.40;65.20
14577;DHT22;7375;46.072;14.470;2023-05-07T01:45:22;22.40;65.30
14577;DHT22;7375;46.072;14.470;2023-05-07T01:47:49;22.40;65.40
14577;DHT22;7375;46.072;14.470;2023-05-07T01:50:16;22.40;65.60
14577;DHT22;7375;46.072;14.470;2023-05-07T01:52:43;22.40;65.50
14577;DHT22;7375;46.072;14.470;2023-05-07T01:55:10;22.40;65.40
14577;DHT22;7375;46.072;14.470;2023-05-07T01:57:38;22.40;65.50
14577;DHT22;7375;46.072;14.470;2023-05-07T02:00:05;22.40;65.50
14577;DHT22;7375;46.072;14.470;2023-05-07T02:02:34;22.40;65.50
14577;DHT22;7375;46.072;14.470;2023-05-07T02:05:01;22.40;65.50
14577;DHT22;7375;46.072;14.470;2023-05-07T02:07:27;22.40;65.50
14577;DHT22;7375;46.072;14.470;2023-05-07T02:09:54;22.40;65.50
14577;DHT22;7375;46.072;14.470;2023-05-07T02:12:21;22.30;65.40
14577;DHT22;7375;46.072;14.470;2023-05-07T02:14:49;22.30;65.40
14577;DHT22;7375;46.072;14.470;2023-05-07T02:17:16;22.30;65.30
14577;DHT22;7375;46.072;14.470;2023-05-07T02:19:43;22.30;65.30
14577;DHT22;7375;46.072;14.470;2023-05-07T02:22:10;22.30;65.30
14577;DHT22;7375;46.072;14.470;2023-05-07T02:24:37;22.30;65.90
14577;DHT22;7375;46.072;14.470;2023-05-07T02:27:03;22.30;65.20
14577;DHT22;7375;46.072;14.470;2023-05-07T02:29:30;22.30;65.30
14577;DHT22;7375;46.072;14.470;2023-05-07T02:31:58;22.30;65.30
14577;DHT22;7375;46.072;14.470;2023-05-07T02:34:25;22.30;65.30
14577;DHT22;7375;46.072;14.470;2023-05-07T02:36:52;22.30;65.30
14577;DHT22;7375;46.072;14.470;2023-05-07T02:39:18;22.30;65.30
14577;DHT22;7375;46.072;14.470;2023-05-07T02:41:45;22.30;65.30
14577;DHT22;7375;46.072;14.470;2023-05-07T02:44:11;22.30;65.40
14577;DHT22;7375;46.072;14.470;2023-05-07T02:46:38;22.20;65.30
14577;DHT22;7375;46.072;14.470;2023-05-07T02:49:06;22.20;65.30
14577;DHT22;7375;46.072;14.470;2023-05-07T02:51:33;22.20;65.30
14577;DHT22;7375;46.072;14.470;2023-05-07T02:54:00;22.20;65.30
14577;DHT22;7375;46.072;14.470;2023-05-07T02:56:27;22.20;65.30
14577;DHT22;7375;46.072;14.470;2023-05-07T02:58:54;22.20;65.30
14577;DHT22;7375;46.072;14.470;2023-05-07T03:01:20;22.20;65.20
14577;DHT22;7375;46.072;14.470;2023-05-07T03:03:47;22.20;65.20
14577;DHT22;7375;46.072;14.470;2023-05-07T03:06:16;22.20;65.20
14577;DHT22;7375;46.072;14.470;2023-05-07T03:08:42;22.20;65.20
14577;DHT22;7375;46.072;14.470;2023-05-07T03:11:09;22.20;65.20
14577;DHT22;7375;46.072;14.470;2023-05-07T03:13:36;22.20;65.20
14577;DHT22;7375;46.072;14.470;2023-05-07T03:16:03;22.20;65.30
14577;DHT22;7375;46.072;14.470;2023-05-07T03:18:30;22.20;65.30
14577;DHT22;7375;46.072;14.470;2023-05-07T03:20:56;22.20;65.20
14577;DHT22;7375;46.072;14.470;2023-05-07T03:23:24;22.20;65.20
14577;DHT22;7375;46.072;14.470;2023-05-07T03:25:51;22.10;65.10
14577;DHT22;7375;46.072;14.470;2023-05-07T03:28:18;22.20;65.20
14577;DHT22;7375;46.072;14.470;2023-05-07T03:30:44;22.10;65.10
14577;DHT22;7375;46.072;14.470;2023-05-07T03:33:11;22.10;65.10
14577;DHT22;7375;46.072;14.470;2023-05-07T03:35:38;22.10;65.10
14577;DHT22;7375;46.072;14.470;2023-05-07T03:38:05;22.10;65.10
14577;DHT22;7375;46.072;14.470;2023-05-07T03:40:33;22.10;65.10
14577;DHT22;7375;46.072;14.470;2023-05-07T03:43:00;22.10;65.10
14577;DHT22;7375;46.072;14.470;2023-05-07T03:45:26;22.10;65.10
14577;DHT22;7375;46.072;14.470;2023-05-07T03:47:53;22.10;65.10
14577;DHT22;7375;46.072;14.470;2023-05-07T03:50:20;22.10;65.10
14577;DHT22;7375;46.072;14.470;2023-05-07T03:52:47;22.10;65.10
14577;DHT22;7375;46.072;14.470;2023-05-07T03:55:13;22.10;65.10
14577;DHT22;7375;46.072;14.470;2023-05-07T03:57:41;22.10;65.00
14577;DHT22;7375;46.072;14.470;2023-05-07T04:00:08;22.10;65.10
14577;DHT22;7375;46.072;14.470;2023-05-07T04:02:35;22.10;65.10
14577;DHT22;7375;46.072;14.470;2023-05-07T04:05:02;22.10;65.10
14577;DHT22;7375;46.072;14.470;2023-05-07T04:07:29;22.10;65.10
14577;DHT22;7375;46.072;14.470;2023-05-07T04:09:55;22.10;65.10
14577;DHT22;7375;46.072;14.470;2023-05-07T04:12:22;22.10;65.10
14577;DHT22;7375;46.072;14.470;2023-05-07T04:14:50;22.10;65.10
14577;DHT22;7375;46.072;14.470;2023-05-07T04:17:17;22.10;65.20
14577;DHT22;7375;46.072;14.470;2023-05-07T04:19:43;22.10;65.10
14577;DHT22;7375;46.072;14.470;2023-05-07T04:22:10;22.10;65.20
14577;DHT22;7375;46.072;14.470;2023-05-07T04:24:37;22.10;65.10
14577;DHT22;7375;46.072;14.470;2023-05-07T04:27:04;22.10;65.10
14577;DHT22;7375;46.072;14.470;2023-05-07T04:29:31;22.10;65.10
14577;DHT22;7375;46.072;14.470;2023-05-07T04:31:59;22.10;65.10
14577;DHT22;7375;46.072;14.470;2023-05-07T04:34:26;22.10;65.10
14577;DHT22;7375;46.072;14.470;2023-05-07T04:36:53;22.10;65.10
14577;DHT22;7375;46.072;14.470;2023-05-07T04:39:20;22.10;65.10
14577;DHT22;7375;46.072;14.470;2023-05-07T04:41:46;22.10;65.10
14577;DHT22;7375;46.072;14.470;2023-05-07T04:44:13;22.10;65.10
14577;DHT22;7375;46.072;14.470;2023-05-07T04:46:40;22.10;65.10
14577;DHT22;7375;46.072;14.470;2023-05-07T04:49:08;22.10;65.00
14577;DHT22;7375;46.072;14.470;2023-05-07T04:51:35;22.10;65.00
14577;DHT22;7375;46.072;14.470;2023-05-07T04:54:02;22.10;64.90
14577;DHT22;7375;46.072;14.470;2023-05-07T04:56:28;22.10;65.00
14577;DHT22;7375;46.072;14.470;2023-05-07T04:58:55;22.10;64.90
14577;DHT22;7375;46.072;14.470;2023-05-07T05:01:22;22.10;64.90
14577;DHT22;7375;46.072;14.470;2023-05-07T05:03:48;22.10;64.90
14577;DHT22;7375;46.072;14.470;2023-05-07T05:06:17;22.10;64.90
14577;DHT22;7375;46.072;14.470;2023-05-07T05:08:43;22.20;65.00
14577;DHT22;7375;46.072;14.470;2023-05-07T05:11:10;22.20;64.90
14577;DHT22;7375;46.072;14.470;2023-05-07T05:13:37;22.20;64.90
14577;DHT22;7375;46.072;14.470;2023-05-07T05:16:03;22.20;65.00
14577;DHT22;7375;46.072;14.470;2023-05-07T05:18:31;22.20;64.90
14577;DHT22;7375;46.072;14.470;2023-05-07T05:20:57;22.20;64.90
14577;DHT22;7375;46.072;14.470;2023-05-07T05:23:25;22.20;64.80
14577;DHT22;7375;46.072;14.470;2023-05-07T05:25:55;22.20;64.80
14577;DHT22;7375;46.072;14.470;2023-05-07T05:28:21;22.20;64.80
14577;DHT22;7375;46.072;14.470;2023-05-07T05:30:48;22.20;64.80
14577;DHT22;7375;46.072;14.470;2023-05-07T05:33:15;22.20;64.70
14577;DHT22;7375;46.072;14.470;2023-05-07T05:35:41;22.20;64.80
14577;DHT22;7375;46.072;14.470;2023-05-07T05:38:08;22.20;64.80
14577;DHT22;7375;46.072;14.470;2023-05-07T05:40:36;22.20;64.90
14577;DHT22;7375;46.072;14.470;2023-05-07T05:43:03;22.30;65.00
14577;DHT22;7375;46.072;14.470;2023-05-07T05:45:30;22.30;65.00
14577;DHT22;7375;46.072;14.470;2023-05-07T05:47:56;22.30;64.90
14577;DHT22;7375;46.072;14.470;2023-05-07T05:50:23;22.40;64.90
14577;DHT22;7375;46.072;14.470;2023-05-07T05:52:50;22.40;64.80
14577;DHT22;7375;46.072;14.470;2023-05-07T05:55:16;22.40;64.80
14577;DHT22;7375;46.072;14.470;2023-05-07T05:57:44;22.50;64.90
14577;DHT22;7375;46.072;14.470;2023-05-07T06:00:12;22.50;64.80
14577;DHT22;7375;46.072;14.470;2023-05-07T06:02:39;22.50;64.70
14577;DHT22;7375;46.072;14.470;2023-05-07T06:05:06;22.60;64.70
14577;DHT22;7375;46.072;14.470;2023-05-07T06:07:32;22.60;64.60
14577;DHT22;7375;46.072;14.470;2023-05-07T06:10:00;22.60;64.50
14577;DHT22;7375;46.072;14.470;2023-05-07T06:12:26;22.60;64.40
14577;DHT22;7375;46.072;14.470;2023-05-07T06:14:54;22.70;64.40
14577;DHT22;7375;46.072;14.470;2023-05-07T06:17:21;22.70;64.30
14577;DHT22;7375;46.072;14.470;2023-05-07T06:19:48;22.70;64.10
14577;DHT22;7375;46.072;14.470;2023-05-07T06:22:14;22.80;64.20
14577;DHT22;7375;46.072;14.470;2023-05-07T06:24:41;22.80;64.10
14577;DHT22;7375;46.072;14.470;2023-05-07T06:27:08;22.80;63.80
14577;DHT22;7375;46.072;14.470;2023-05-07T06:29:35;22.80;63.60
14577;DHT22;7375;46.072;14.470;2023-05-07T06:32:09;22.90;63.50
14577;DHT22;7375;46.072;14.470;2023-05-07T06:34:36;22.90;63.50
14577;DHT22;7375;46.072;14.470;2023-05-07T06:37:03;22.90;63.20
14577;DHT22;7375;46.072;14.470;2023-05-07T06:39:30;22.90;63.20
14577;DHT22;7375;46.072;14.470;2023-05-07T06:41:57;22.90;63.10
14577;DHT22;7375;46.072;14.470;2023-05-07T06:44:24;23.00;62.90
14577;DHT22;7375;46.072;14.470;2023-05-07T06:46:50;23.00;62.30
14577;DHT22;7375;46.072;14.470;2023-05-07T06:49:18;23.00;60.60
14577;DHT22;7375;46.072;14.470;2023-05-07T06:51:46;23.00;58.90
14577;DHT22;7375;46.072;14.470;2023-05-07T06:54:12;23.00;59.20
14577;DHT22;7375;46.072;14.470;2023-05-07T06:56:39;23.00;58.40
14577;DHT22;7375;46.072;14.470;2023-05-07T06:59:06;23.00;58.70
14577;DHT22;7375;46.072;14.470;2023-05-07T07:01:33;23.00;58.70
14577;DHT22;7375;46.072;14.470;2023-05-07T07:03:59;23.10;59.30
14577;DHT22;7375;46.072;14.470;2023-05-07T07:06:28;23.10;59.10
14577;DHT22;7375;46.072;14.470;2023-05-07T07:08:57;23.10;59.20
14577;DHT22;7375;46.072;14.470;2023-05-07T07:11:23;23.10;59.70
14577;DHT22;7375;46.072;14.470;2023-05-07T07:13:53;23.20;59.70
14577;DHT22;7375;46.072;14.470;2023-05-07T07:16:20;23.20;59.60
14577;DHT22;7375;46.072;14.470;2023-05-07T07:18:46;23.20;59.70
14577;DHT22;7375;46.072;14.470;2023-05-07T07:21:13;23.20;59.70
14577;DHT22;7375;46.072;14.470;2023-05-07T07:23:42;23.30;59.80
14577;DHT22;7375;46.072;14.470;2023-05-07T07:26:09;23.30;60.40
14577;DHT22;7375;46.072;14.470;2023-05-07T07:28:41;23.30;59.80
14577;DHT22;7375;46.072;14.470;2023-05-07T07:31:08;23.40;59.90
14577;DHT22;7375;46.072;14.470;2023-05-07T07:33:35;23.40;59.90
14577;DHT22;7375;46.072;14.470;2023-05-07T07:36:01;23.30;59.80
14577;DHT22;7375;46.072;14.470;2023-05-07T07:38:28;23.30;59.70
14577;DHT22;7375;46.072;14.470;2023-05-07T07:40:56;23.40;59.90
14577;DHT22;7375;46.072;14.470;2023-05-07T07:43:23;23.40;59.90
14577;DHT22;7375;46.072;14.470;2023-05-07T07:45:50;23.40;59.90
14577;DHT22;7375;46.072;14.470;2023-05-07T07:48:17;23.40;59.90
14577;DHT22;7375;46.072;14.470;2023-05-07T07:50:43;23.50;59.90
14577;DHT22;7375;46.072;14.470;2023-05-07T07:53:10;23.40;59.80
14577;DHT22;7375;46.072;14.470;2023-05-07T07:55:38;23.50;60.10
14577;DHT22;7375;46.072;14.470;2023-05-07T07:58:08;23.50;60.10
14577;DHT22;7375;46.072;14.470;2023-05-07T08:00:37;23.50;60.10
14577;DHT22;7375;46.072;14.470;2023-05-07T08:03:07;23.50;60.00
14577;DHT22;7375;46.072;14.470;2023-05-07T08:05:35;23.50;60.10
14577;DHT22;7375;46.072;14.470;2023-05-07T08:08:02;23.50;60.10
14577;DHT22;7375;46.072;14.470;2023-05-07T08:10:29;23.60;60.20
14577;DHT22;7375;46.072;14.470;2023-05-07T08:12:59;23.60;60.10
14577;DHT22;7375;46.072;14.470;2023-05-07T08:15:27;23.60;60.00
14577;DHT22;7375;46.072;14.470;2023-05-07T08:17:54;23.60;60.00
14577;DHT22;7375;46.072;14.470;2023-05-07T08:20:22;23.60;60.00
14577;DHT22;7375;46.072;14.470;2023-05-07T08:22:49;23.60;60.00
14577;DHT22;7375;46.072;14.470;2023-05-07T08:25:51;23.60;60.00
14577;DHT22;7375;46.072;14.470;2023-05-07T08:28:08;23.70;60.20
14577;DHT22;7375;46.072;14.470;2023-05-07T08:30:36;23.70;60.10
14577;DHT22;7375;46.072;14.470;2023-05-07T08:33:03;23.70;60.10
14577;DHT22;7375;46.072;14.470;2023-05-07T08:35:30;23.60;59.90
14577;DHT22;7375;46.072;14.470;2023-05-07T08:37:57;23.70;59.90
14577;DHT22;7375;46.072;14.470;2023-05-07T08:40:25;23.60;59.70
14577;DHT22;7375;46.072;14.470;2023-05-07T08:42:52;23.60;59.60
14577;DHT22;7375;46.072;14.470;2023-05-07T08:45:19;23.60;59.60
14577;DHT22;7375;46.072;14.470;2023-05-07T08:47:49;23.60;59.50
14577;DHT22;7375;46.072;14.470;2023-05-07T08:50:18;23.70;59.60
14577;DHT22;7375;46.072;14.470;2023-05-07T08:52:46;23.70;59.60
14577;DHT22;7375;46.072;14.470;2023-05-07T08:55:13;23.70;59.60
14577;DHT22;7375;46.072;14.470;2023-05-07T08:57:41;23.70;59.60
14577;DHT22;7375;46.072;14.470;2023-05-07T09:00:08;23.70;59.60
14577;DHT22;7375;46.072;14.470;2023-05-07T09:02:35;23.70;59.50
14577;DHT22;7375;46.072;14.470;2023-05-07T09:05:03;23.70;59.50
14577;DHT22;7375;46.072;14.470;2023-05-07T09:07:30;23.70;59.50
14577;DHT22;7375;46.072;14.470;2023-05-07T09:09:57;23.60;59.40
14577;DHT22;7375;46.072;14.470;2023-05-07T09:12:24;23.70;59.50
14577;DHT22;7375;46.072;14.470;2023-05-07T09:14:51;23.70;59.50
14577;DHT22;7375;46.072;14.470;2023-05-07T09:17:18;23.70;59.50
14577;DHT22;7375;46.072;14.470;2023-05-07T09:19:45;23.60;59.30
14577;DHT22;7375;46.072;14.470;2023-05-07T09:22:13;23.60;59.40
14577;DHT22;7375;46.072;14.470;2023-05-07T09:24:40;23.70;59.40
14577;DHT22;7375;46.072;14.470;2023-05-07T09:27:07;23.70;59.40
14577;DHT22;7375;46.072;14.470;2023-05-07T09:29:35;23.70;59.40
14577;DHT22;7375;46.072;14.470;2023-05-07T09:32:02;23.70;59.50
14577;DHT22;7375;46.072;14.470;2023-05-07T09:34:29;23.70;59.40
14577;DHT22;7375;46.072;14.470;2023-05-07T09:36:55;23.70;59.40
14577;DHT22;7375;46.072;14.470;2023-05-07T09:39:24;23.60;59.30
14577;DHT22;7375;46.072;14.470;2023-05-07T09:41:51;23.70;59.40
14577;DHT22;7375;46.072;14.470;2023-05-07T09:44:20;23.70;59.30
14577;DHT22;7375;46.072;14.470;2023-05-07T09:46:48;23.70;59.40
14577;DHT22;7375;46.072;14.470;2023-05-07T09:49:20;23.60;59.30
14577;DHT22;7375;46.072;14.470;2023-05-07T09:51:48;23.70;59.30
14577;DHT22;7375;46.072;14.470;2023-05-07T09:54:15;23.70;59.30
14577;DHT22;7375;46.072;14.470;2023-05-07T09:56:44;23.70;59.30
14577;DHT22;7375;46.072;14.470;2023-05-07T09:59:12;23.70;59.30
14577;DHT22;7375;46.072;14.470;2023-05-07T10:01:39;23.70;59.20
14577;DHT22;7375;46.072;14.470;2023-05-07T10:04:07;23.70;59.20
14577;DHT22;7375;46.072;14.470;2023-05-07T10:06:34;23.70;59.20
14577;DHT22;7375;46.072;14.470;2023-05-07T10:09:01;23.70;59.20
14577;DHT22;7375;46.072;14.470;2023-05-07T10:11:28;23.70;59.20
14577;DHT22;7375;46.072;14.470;2023-05-07T10:13:56;23.70;59.20
14577;DHT22;7375;46.072;14.470;2023-05-07T10:16:23;23.70;59.20
14577;DHT22;7375;46.072;14.470;2023-05-07T10:18:51;23.70;59.10
14577;DHT22;7375;46.072;14.470;2023-05-07T10:21:18;23.70;59.10
14577;DHT22;7375;46.072;14.470;2023-05-07T10:23:47;23.70;59.10
14577;DHT22;7375;46.072;14.470;2023-05-07T10:26:14;23.70;59.10
14577;DHT22;7375;46.072;14.470;2023-05-07T10:28:41;23.70;59.10
14577;DHT22;7375;46.072;14.470;2023-05-07T10:31:18;23.70;59.10
14577;DHT22;7375;46.072;14.470;2023-05-07T10:33:50;23.70;59.10
14577;DHT22;7375;46.072;14.470;2023-05-07T10:36:17;23.70;59.00
14577;DHT22;7375;46.072;14.470;2023-05-07T10:38:45;23.70;59.00
14577;DHT22;7375;46.072;14.470;2023-05-07T10:41:12;23.70;59.00
14577;DHT22;7375;46.072;14.470;2023-05-07T10:43:39;23.70;58.90
14577;DHT22;7375;46.072;14.470;2023-05-07T10:46:10;23.70;58.90
14577;DHT22;7375;46.072;14.470;2023-05-07T10:51:20;23.70;58.90
14577;DHT22;7375;46.072;14.470;2023-05-07T10:53:47;23.70;58.80
14577;DHT22;7375;46.072;14.470;2023-05-07T11:01:49;23.70;58.80
14577;DHT22;7375;46.072;14.470;2023-05-07T11:04:16;23.70;58.80
14577;DHT22;7375;46.072;14.470;2023-05-07T11:12:18;23.70;58.80
14577;DHT22;7375;46.072;14.470;2023-05-07T11:15:04;23.70;58.70
14577;DHT22;7375;46.072;14.470;2023-05-07T11:17:31;23.70;58.70
14577;DHT22;7375;46.072;14.470;2023-05-07T11:20:00;23.70;58.70
14577;DHT22;7375;46.072;14.470;2023-05-07T11:22:36;23.70;58.70
14577;DHT22;7375;46.072;14.470;2023-05-07T11:25:05;23.70;58.70
14577;DHT22;7375;46.072;14.470;2023-05-07T11:27:33;23.70;58.60
14577;DHT22;7375;46.072;14.470;2023-05-07T11:30:00;23.70;58.60
14577;DHT22;7375;46.072;14.470;2023-05-07T11:32:27;23.70;58.70
14577;DHT22;7375;46.072;14.470;2023-05-07T11:34:55;23.70;58.60
14577;DHT22;7375;46.072;14.470;2023-05-07T11:37:22;23.70;58.60
14577;DHT22;7375;46.072;14.470;2023-05-07T11:39:49;23.70;58.60
14577;DHT22;7375;46.072;14.470;2023-05-07T11:42:28;23.70;58.60
14577;DHT22;7375;46.072;14.470;2023-05-07T11:44:57;23.70;58.60
14577;DHT22;7375;46.072;14.470;2023-05-07T11:47:24;23.70;58.60
14577;DHT22;7375;46.072;14.470;2023-05-07T11:49:52;23.70;58.60
14577;DHT22;7375;46.072;14.470;2023-05-07T11:52:19;23.70;58.60
14577;DHT22;7375;46.072;14.470;2023-05-07T11:54:48;23.70;58.60
14577;DHT22;7375;46.072;14.470;2023-05-07T11:57:15;23.70;58.60
14577;DHT22;7375;46.072;14.470;2023-05-07T11:59:42;23.70;58.50
14577;DHT22;7375;46.072;14.470;2023-05-07T12:02:11;23.70;58.50
14577;DHT22;7375;46.072;14.470;2023-05-07T12:04:39;23.80;58.60
14577;DHT22;7375;46.072;14.470;2023-05-07T12:07:10;23.70;58.50
14577;DHT22;7375;46.072;14.470;2023-05-07T12:09:37;23.70;58.50
14577;DHT22;7375;46.072;14.470;2023-05-07T12:12:04;23.70;58.50
14577;DHT22;7375;46.072;14.470;2023-05-07T12:14:31;23.70;58.50
14577;DHT22;7375;46.072;14.470;2023-05-07T12:16:58;23.80;58.60
14577;DHT22;7375;46.072;14.470;2023-05-07T12:19:29;23.70;58.50
14577;DHT22;7375;46.072;14.470;2023-05-07T12:21:56;23.80;58.60
14577;DHT22;7375;46.072;14.470;2023-05-07T12:24:23;23.70;58.50
14577;DHT22;7375;46.072;14.470;2023-05-07T12:26:50;23.80;58.50
14577;DHT22;7375;46.072;14.470;2023-05-07T12:29:17;23.70;58.40
14577;DHT22;7375;46.072;14.470;2023-05-07T12:31:47;23.80;58.50
14577;DHT22;7375;46.072;14.470;2023-05-07T12:34:14;23.70;58.40
14577;DHT22;7375;46.072;14.470;2023-05-07T12:36:43;23.70;58.40
14577;DHT22;7375;46.072;14.470;2023-05-07T12:39:09;23.70;59.00
14577;DHT22;7375;46.072;14.470;2023-05-07T12:41:51;23.70;58.40
14577;DHT22;7375;46.072;14.470;2023-05-07T12:44:19;23.80;58.40
14577;DHT22;7375;46.072;14.470;2023-05-07T12:46:46;23.70;58.30
14577;DHT22;7375;46.072;14.470;2023-05-07T12:49:13;23.70;58.30
14577;DHT22;7375;46.072;14.470;2023-05-07T12:51:39;23.70;58.30
14577;DHT22;7375;46.072;14.470;2023-05-07T12:54:08;23.80;58.40
14577;DHT22;7375;46.072;14.470;2023-05-07T12:56:35;23.80;58.40
14577;DHT22;7375;46.072;14.470;2023-05-07T12:59:02;23.80;58.40
14577;DHT22;7375;46.072;14.470;2023-05-07T13:01:29;23.80;58.30
14577;DHT22;7375;46.072;14.470;2023-05-07T13:03:56;23.80;58.30
14577;DHT22;7375;46.072;14.470;2023-05-07T13:06:26;23.80;58.30
14577;DHT22;7375;46.072;14.470;2023-05-07T13:08:53;23.80;58.30
14577;DHT22;7375;46.072;14.470;2023-05-07T13:11:21;23.80;58.30
14577;DHT22;7375;46.072;14.470;2023-05-07T13:13:49;23.80;58.30
14577;DHT22;7375;46.072;14.470;2023-05-07T13:16:15;23.80;58.20
14577;DHT22;7375;46.072;14.470;2023-05-07T13:18:42;23.80;58.30
14577;DHT22;7375;46.072;14.470;2023-05-07T13:21:10;23.80;58.20
14577;DHT22;7375;46.072;14.470;2023-05-07T13:23:39;23.80;58.20
14577;DHT22;7375;46.072;14.470;2023-05-07T13:26:05;23.80;58.20
14577;DHT22;7375;46.072;14.470;2023-05-07T13:28:33;23.80;58.20
14577;DHT22;7375;46.072;14.470;2023-05-07T13:31:00;23.80;58.20
14577;DHT22;7375;46.072;14.470;2023-05-07T13:33:28;23.80;58.20
14577;DHT22;7375;46.072;14.470;2023-05-07T13:35:54;23.80;58.20
14577;DHT22;7375;46.072;14.470;2023-05-07T13:38:22;23.80;58.20
14577;DHT22;7375;46.072;14.470;2023-05-07T13:40:49;23.80;58.20
14577;DHT22;7375;46.072;14.470;2023-05-07T13:43:15;23.80;58.10
14577;DHT22;7375;46.072;14.470;2023-05-07T13:45:44;23.80;58.10
14577;DHT22;7375;46.072;14.470;2023-05-07T13:48:11;23.80;58.20
14577;DHT22;7375;46.072;14.470;2023-05-07T13:50:37;23.80;58.10
14577;DHT22;7375;46.072;14.470;2023-05-07T13:53:07;23.80;58.10
14577;DHT22;7375;46.072;14.470;2023-05-07T13:55:33;23.80;58.10
14577;DHT22;7375;46.072;14.470;2023-05-07T13:58:01;23.80;58.10
14577;DHT22;7375;46.072;14.470;2023-05-07T14:00:28;23.80;58.10
14577;DHT22;7375;46.072;14.470;2023-05-07T14:02:57;23.80;58.10
14577;DHT22;7375;46.072;14.470;2023-05-07T14:05:24;23.80;58.00
14577;DHT22;7375;46.072;14.470;2023-05-07T14:07:52;23.80;58.00
14577;DHT22;7375;46.072;14.470;2023-05-07T14:10:20;23.80;58.10
14577;DHT22;7375;46.072;14.470;2023-05-07T14:12:46;23.80;58.00
14577;DHT22;7375;46.072;14.470;2023-05-07T14:15:13;23.80;58.00
14577;DHT22;7375;46.072;14.470;2023-05-07T14:17:40;23.90;58.10
14577;DHT22;7375;46.072;14.470;2023-05-07T14:20:09;23.80;58.00
14577;DHT22;7375;46.072;14.470;2023-05-07T14:22:36;23.80;58.00
14577;DHT22;7375;46.072;14.470;2023-05-07T14:25:03;23.80;57.90
14577;DHT22;7375;46.072;14.470;2023-05-07T14:27:30;23.90;58.10
14577;DHT22;7375;46.072;14.470;2023-05-07T14:29:56;23.80;58.00
14577;DHT22;7375;46.072;14.470;2023-05-07T14:32:23;23.90;58.00
14577;DHT22;7375;46.072;14.470;2023-05-07T14:34:50;23.80;57.90
14577;DHT22;7375;46.072;14.470;2023-05-07T14:37:18;23.80;57.90
14577;DHT22;7375;46.072;14.470;2023-05-07T14:39:45;23.80;57.90
14577;DHT22;7375;46.072;14.470;2023-05-07T14:42:12;23.80;57.90
14577;DHT22;7375;46.072;14.470;2023-05-07T14:44:38;23.90;58.00
14577;DHT22;7375;46.072;14.470;2023-05-07T14:47:06;23.80;57.90
14577;DHT22;7375;46.072;14.470;2023-05-07T14:49:33;23.80;57.90
14577;DHT22;7375;46.072;14.470;2023-05-07T14:52:00;23.80;57.90
14577;DHT22;7375;46.072;14.470;2023-05-07T14:54:28;23.80;57.90
14577;DHT22;7375;46.072;14.470;2023-05-07T14:56:55;23.80;57.90
14577;DHT22;7375;46.072;14.470;2023-05-07T14:59:22;23.80;57.80
14577;DHT22;7375;46.072;14.470;2023-05-07T15:01:50;23.80;57.80
14577;DHT22;7375;46.072;14.470;2023-05-07T15:04:17;23.90;57.90
14577;DHT22;7375;46.072;14.470;2023-05-07T15:06:43;23.80;57.90
14577;DHT22;7375;46.072;14.470;2023-05-07T15:09:11;23.90;57.90
14577;DHT22;7375;46.072;14.470;2023-05-07T15:11:40;23.80;57.80
14577;DHT22;7375;46.072;14.470;2023-05-07T15:14:07;23.90;57.90
14577;DHT22;7375;46.072;14.470;2023-05-07T15:16:33;23.90;57.90
14577;DHT22;7375;46.072;14.470;2023-05-07T15:19:00;23.90;57.90
14577;DHT22;7375;46.072;14.470;2023-05-07T15:21:27;23.90;57.90
14577;DHT22;7375;46.072;14.470;2023-05-07T15:23:56;23.90;57.80
14577;DHT22;7375;46.072;14.470;2023-05-07T15:26:22;23.90;57.80
14577;DHT22;7375;46.072;14.470;2023-05-07T15:28:50;23.90;57.80
14577;DHT22;7375;46.072;14.470;2023-05-07T15:31:17;23.90;57.80
14577;DHT22;7375;46.072;14.470;2023-05-07T15:33:44;23.90;57.80
14577;DHT22;7375;46.072;14.470;2023-05-07T15:36:11;23.90;57.80
14577;DHT22;7375;46.072;14.470;2023-05-07T15:38:37;23.90;57.80
14577;DHT22;7375;46.072;14.470;2023-05-07T15:41:04;23.90;57.80
14577;DHT22;7375;46.072;14.470;2023-05-07T15:43:31;23.90;57.80
14577;DHT22;7375;46.072;14.470;2023-05-07T15:45:59;23.90;57.80